sensor_id;sensor_type;location;lat;lon;timestamp;P1;durP1;ratioP1;P2;durP2;ratioP2
10880;SDS011;5493;48.884;8.338;2023-04-03T00:00:28;3.77;;;1.20;;
10880;SDS011;5493;48.884;8.338;2023-04-03T00:02:56;4.27;;;1.63;;
10880;SDS011;5493;48.884;8.338;2023-04-03T00:05:23;1.60;;;1.40;;
10880;SDS011;5493;48.884;8.338;2023-04-03T00:07:49;1.87;;;1.37;;
10880;SDS011;5493;48.884;8.338;2023-04-03T00:10:17;3.13;;;1.77;;
10880;SDS011;5493;48.884;8.338;2023-04-03T00:12:44;1.50;;;1.37;;
10880;SDS011;5493;48.884;8.338;2023-04-03T00:15:10;1.93;;;1.40;;
10880;SDS011;5493;48.884;8.338;2023-04-03T00:17:37;1.63;;;1.40;;
10880;SDS011;5493;48.884;8.338;2023-04-03T00:20:04;2.10;;;1.50;;
10880;SDS011;5493;48.884;8.338;2023-04-03T00:22:31;1.30;;;1.20;;
10880;SDS011;5493;48.884;8.338;2023-04-03T00:24:58;2.00;;;1.33;;
10880;SDS011;5493;48.884;8.338;2023-04-03T00:27:26;1.77;;;1.40;;
10880;SDS011;5493;48.884;8.338;2023-04-03T00:29:52;1.53;;;1.40;;
10880;SDS011;5493;48.884;8.338;2023-04-03T00:32:19;1.90;;;1.40;;
10880;SDS011;5493;48.884;8.338;2023-04-03T00:34:45;1.33;;;1.23;;
10880;SDS011;5493;48.884;8.338;2023-04-03T00:37:12;1.43;;;1.17;;
10880;SDS011;5493;48.884;8.338;2023-04-03T00:39:38;3.07;;;1.40;;
10880;SDS011;5493;48.884;8.338;2023-04-03T00:42:05;1.70;;;1.27;;
10880;SDS011;5493;48.884;8.338;2023-04-03T00:47:37;2.57;;;1.30;;
10880;SDS011;5493;48.884;8.338;2023-04-03T00:50:07;1.73;;;1.30;;
10880;SDS011;5493;48.884;8.338;2023-04-03T00:52:34;1.60;;;1.20;;
10880;SDS011;5493;48.884;8.338;2023-04-03T00:55:04;1.77;;;1.47;;
10880;SDS011;5493;48.884;8.338;2023-04-03T00:57:33;1.60;;;1.40;;
10880;SDS011;5493;48.884;8.338;2023-04-03T01:00:03;3.13;;;1.50;;
10880;SDS011;5493;48.884;8.338;2023-04-03T01:02:33;1.27;;;1.10;;
10880;SDS011;5493;48.884;8.338;2023-04-03T01:05:01;2.13;;;1.47;;
10880;SDS011;5493;48.884;8.338;2023-04-03T01:07:29;1.67;;;1.57;;
10880;SDS011;5493;48.884;8.338;2023-04-03T01:09:59;3.47;;;1.30;;
10880;SDS011;5493;48.884;8.338;2023-04-03T01:12:31;1.93;;;1.30;;
10880;SDS011;5493;48.884;8.338;2023-04-03T01:15:00;2.50;;;1.50;;
10880;SDS011;5493;48.884;8.338;2023-04-03T01:17:30;1.70;;;1.40;;
10880;SDS011;5493;48.884;8.338;2023-04-03T01:20:13;2.50;;;1.17;;
10880;SDS011;5493;48.884;8.338;2023-04-03T01:23:04;2.37;;;1.77;;
10880;SDS011;5493;48.884;8.338;2023-04-03T01:25:40;1.90;;;1.10;;
10880;SDS011;5493;48.884;8.338;2023-04-03T01:28:09;1.53;;;1.30;;
10880;SDS011;5493;48.884;8.338;2023-04-03T01:30:39;1.40;;;1.17;;
10880;SDS011;5493;48.884;8.338;2023-04-03T01:33:11;2.23;;;1.20;;
10880;SDS011;5493;48.884;8.338;2023-04-03T01:35:38;1.87;;;1.30;;
10880;SDS011;5493;48.884;8.338;2023-04-03T01:38:05;2.03;;;1.43;;
10880;SDS011;5493;48.884;8.338;2023-04-03T01:40:31;1.73;;;1.37;;
10880;SDS011;5493;48.884;8.338;2023-04-03T01:42:58;4.00;;;1.50;;
10880;SDS011;5493;48.884;8.338;2023-04-03T01:45:25;2.03;;;1.10;;
10880;SDS011;5493;48.884;8.338;2023-04-03T01:47:51;2.33;;;1.33;;
10880;SDS011;5493;48.884;8.338;2023-04-03T01:50:19;2.80;;;1.63;;
10880;SDS011;5493;48.884;8.338;2023-04-03T01:52:45;1.80;;;1.20;;
10880;SDS011;5493;48.884;8.338;2023-04-03T01:55:12;2.03;;;1.30;;
10880;SDS011;5493;48.884;8.338;2023-04-03T01:57:38;1.60;;;1.33;;
10880;SDS011;5493;48.884;8.338;2023-04-03T02:00:05;1.67;;;1.33;;
10880;SDS011;5493;48.884;8.338;2023-04-03T02:02:33;1.40;;;1.30;;
10880;SDS011;5493;48.884;8.338;2023-04-03T02:05:00;2.20;;;1.20;;
10880;SDS011;5493;48.884;8.338;2023-04-03T02:07:27;1.43;;;1.17;;
10880;SDS011;5493;48.884;8.338;2023-04-03T02:09:54;1.97;;;1.50;;
10880;SDS011;5493;48.884;8.338;2023-04-03T02:12:21;2.03;;;1.50;;
10880;SDS011;5493;48.884;8.338;2023-04-03T02:14:47;1.73;;;1.20;;
10880;SDS011;5493;48.884;8.338;2023-04-03T02:17:13;1.20;;;1.10;;
10880;SDS011;5493;48.884;8.338;2023-04-03T02:19:40;3.53;;;1.40;;
10880;SDS011;5493;48.884;8.338;2023-04-03T02:22:06;1.83;;;1.47;;
10880;SDS011;5493;48.884;8.338;2023-04-03T02:24:34;2.73;;;1.20;;
10880;SDS011;5493;48.884;8.338;2023-04-03T02:27:01;1.17;;;1.07;;
10880;SDS011;5493;48.884;8.338;2023-04-03T02:29:27;1.80;;;1.27;;
10880;SDS011;5493;48.884;8.338;2023-04-03T02:31:54;4.10;;;1.37;;
10880;SDS011;5493;48.884;8.338;2023-04-03T02:34:20;1.23;;;1.13;;
10880;SDS011;5493;48.884;8.338;2023-04-03T02:36:47;2.63;;;1.03;;
10880;SDS011;5493;48.884;8.338;2023-04-03T02:39:13;3.97;;;1.40;;
10880;SDS011;5493;48.884;8.338;2023-04-03T02:41:42;1.40;;;1.07;;
10880;SDS011;5493;48.884;8.338;2023-04-03T02:44:09;1.70;;;1.23;;
10880;SDS011;5493;48.884;8.338;2023-04-03T02:46:36;1.00;;;1.00;;
10880;SDS011;5493;48.884;8.338;2023-04-03T02:49:03;1.57;;;1.40;;
10880;SDS011;5493;48.884;8.338;2023-04-03T02:51:30;3.30;;;1.27;;
10880;SDS011;5493;48.884;8.338;2023-04-03T02:53:57;2.10;;;1.17;;
10880;SDS011;5493;48.884;8.338;2023-04-03T02:56:23;1.33;;;1.23;;
10880;SDS011;5493;48.884;8.338;2023-04-03T02:58:53;2.13;;;1.43;;
10880;SDS011;5493;48.884;8.338;2023-04-03T03:01:20;1.67;;;1.27;;
10880;SDS011;5493;48.884;8.338;2023-04-03T03:03:46;2.00;;;1.10;;
10880;SDS011;5493;48.884;8.338;2023-04-03T03:06:17;2.10;;;1.37;;
10880;SDS011;5493;48.884;8.338;2023-04-03T03:08:43;3.50;;;1.93;;
10880;SDS011;5493;48.884;8.338;2023-04-03T03:11:10;4.53;;;1.50;;
10880;SDS011;5493;48.884;8.338;2023-04-03T03:13:37;2.00;;;1.37;;
10880;SDS011;5493;48.884;8.338;2023-04-03T03:16:05;3.27;;;1.30;;
10880;SDS011;5493;48.884;8.338;2023-04-03T03:18:32;2.27;;;1.23;;
10880;SDS011;5493;48.884;8.338;2023-04-03T03:21:00;3.03;;;1.17;;
10880;SDS011;5493;48.884;8.338;2023-04-03T03:23:28;1.80;;;1.03;;
10880;SDS011;5493;48.884;8.338;2023-04-03T03:25:57;1.30;;;1.20;;
10880;SDS011;5493;48.884;8.338;2023-04-03T03:28:26;1.93;;;1.40;;
10880;SDS011;5493;48.884;8.338;2023-04-03T03:30:52;1.50;;;1.03;;
10880;SDS011;5493;48.884;8.338;2023-04-03T03:33:20;2.63;;;1.07;;
10880;SDS011;5493;48.884;8.338;2023-04-03T03:35:47;2.40;;;1.20;;
10880;SDS011;5493;48.884;8.338;2023-04-03T03:38:13;2.37;;;1.20;;
10880;SDS011;5493;48.884;8.338;2023-04-03T03:40:40;1.63;;;1.30;;
10880;SDS011;5493;48.884;8.338;2023-04-03T03:43:06;2.83;;;1.37;;
10880;SDS011;5493;48.884;8.338;2023-04-03T03:45:33;2.03;;;1.37;;
10880;SDS011;5493;48.884;8.338;2023-04-03T03:48:00;1.47;;;1.13;;
10880;SDS011;5493;48.884;8.338;2023-04-03T03:50:28;1.77;;;1.20;;
10880;SDS011;5493;48.884;8.338;2023-04-03T03:52:54;2.43;;;1.50;;
10880;SDS011;5493;48.884;8.338;2023-04-03T03:55:21;1.20;;;1.10;;
10880;SDS011;5493;48.884;8.338;2023-04-03T03:57:47;2.63;;;1.20;;
10880;SDS011;5493;48.884;8.338;2023-04-03T04:00:14;1.93;;;1.23;;
10880;SDS011;5493;48.884;8.338;2023-04-03T04:06:04;2.27;;;1.30;;
10880;SDS011;5493;48.884;8.338;2023-04-03T04:08:30;1.37;;;1.10;;
10880;SDS011;5493;48.884;8.338;2023-04-03T04:10:57;1.73;;;1.40;;
10880;SDS011;5493;48.884;8.338;2023-04-03T04:13:23;2.43;;;1.27;;
10880;SDS011;5493;48.884;8.338;2023-04-03T04:15:50;2.30;;;1.53;;
10880;SDS011;5493;48.884;8.338;2023-04-03T04:18:17;1.27;;;1.17;;
10880;SDS011;5493;48.884;8.338;2023-04-03T04:20:45;1.60;;;1.40;;
10880;SDS011;5493;48.884;8.338;2023-04-03T04:23:13;2.27;;;1.20;;
10880;SDS011;5493;48.884;8.338;2023-04-03T04:25:39;1.43;;;1.33;;
10880;SDS011;5493;48.884;8.338;2023-04-03T04:28:05;1.47;;;1.30;;
10880;SDS011;5493;48.884;8.338;2023-04-03T04:30:32;2.10;;;1.60;;
10880;SDS011;5493;48.884;8.338;2023-04-03T04:32:58;1.97;;;1.60;;
10880;SDS011;5493;48.884;8.338;2023-04-03T04:35:25;1.20;;;1.10;;
10880;SDS011;5493;48.884;8.338;2023-04-03T04:37:51;2.13;;;1.30;;
10880;SDS011;5493;48.884;8.338;2023-04-03T04:40:19;1.97;;;1.43;;
10880;SDS011;5493;48.884;8.338;2023-04-03T04:42:46;2.10;;;1.13;;
10880;SDS011;5493;48.884;8.338;2023-04-03T04:45:12;2.03;;;1.40;;
10880;SDS011;5493;48.884;8.338;2023-04-03T04:47:39;1.27;;;1.17;;
10880;SDS011;5493;48.884;8.338;2023-04-03T04:50:06;2.17;;;1.40;;
10880;SDS011;5493;48.884;8.338;2023-04-03T04:52:33;2.40;;;1.20;;
10880;SDS011;5493;48.884;8.338;2023-04-03T04:55:00;1.97;;;1.23;;
10880;SDS011;5493;48.884;8.338;2023-04-03T04:57:28;1.73;;;1.20;;
10880;SDS011;5493;48.884;8.338;2023-04-03T04:59:54;1.23;;;1.13;;
10880;SDS011;5493;48.884;8.338;2023-04-03T05:02:21;1.87;;;1.63;;
10880;SDS011;5493;48.884;8.338;2023-04-03T05:04:47;2.80;;;2.33;;
10880;SDS011;5493;48.884;8.338;2023-04-03T05:07:15;3.63;;;2.53;;
10880;SDS011;5493;48.884;8.338;2023-04-03T05:09:41;2.70;;;2.17;;
10880;SDS011;5493;48.884;8.338;2023-04-03T05:12:08;3.53;;;1.93;;
10880;SDS011;5493;48.884;8.338;2023-04-03T05:14:36;4.03;;;2.13;;
10880;SDS011;5493;48.884;8.338;2023-04-03T05:17:02;6.07;;;2.37;;
10880;SDS011;5493;48.884;8.338;2023-04-03T05:19:29;3.00;;;2.10;;
10880;SDS011;5493;48.884;8.338;2023-04-03T05:21:55;5.40;;;2.67;;
10880;SDS011;5493;48.884;8.338;2023-04-03T05:24:22;5.70;;;3.67;;
10880;SDS011;5493;48.884;8.338;2023-04-03T05:26:48;5.57;;;3.00;;
10880;SDS011;5493;48.884;8.338;2023-04-03T05:29:14;4.30;;;3.07;;
10880;SDS011;5493;48.884;8.338;2023-04-03T05:31:42;4.10;;;3.00;;
10880;SDS011;5493;48.884;8.338;2023-04-03T05:34:09;4.73;;;2.93;;
10880;SDS011;5493;48.884;8.338;2023-04-03T05:36:35;5.57;;;3.60;;
10880;SDS011;5493;48.884;8.338;2023-04-03T05:39:02;5.97;;;3.70;;
10880;SDS011;5493;48.884;8.338;2023-04-03T05:41:28;6.67;;;3.90;;
10880;SDS011;5493;48.884;8.338;2023-04-03T05:43:55;6.47;;;3.93;;
10880;SDS011;5493;48.884;8.338;2023-04-03T05:46:21;10.50;;;4.70;;
10880;SDS011;5493;48.884;8.338;2023-04-03T05:48:49;9.07;;;4.90;;
10880;SDS011;5493;48.884;8.338;2023-04-03T05:51:17;6.07;;;3.63;;
10880;SDS011;5493;48.884;8.338;2023-04-03T05:53:45;11.03;;;4.90;;
10880;SDS011;5493;48.884;8.338;2023-04-03T05:56:13;7.70;;;3.77;;
10880;SDS011;5493;48.884;8.338;2023-04-03T05:58:40;6.60;;;3.27;;
10880;SDS011;5493;48.884;8.338;2023-04-03T06:01:06;6.07;;;3.53;;
10880;SDS011;5493;48.884;8.338;2023-04-03T06:03:32;4.20;;;2.80;;
10880;SDS011;5493;48.884;8.338;2023-04-03T06:06:01;4.23;;;2.53;;
10880;SDS011;5493;48.884;8.338;2023-04-03T06:08:29;3.00;;;2.00;;
10880;SDS011;5493;48.884;8.338;2023-04-03T06:10:56;2.17;;;1.63;;
10880;SDS011;5493;48.884;8.338;2023-04-03T06:13:22;1.77;;;1.60;;
10880;SDS011;5493;48.884;8.338;2023-04-03T06:15:49;2.20;;;1.47;;
10880;SDS011;5493;48.884;8.338;2023-04-03T06:18:15;3.40;;;1.60;;
10880;SDS011;5493;48.884;8.338;2023-04-03T06:20:41;3.73;;;1.73;;
10880;SDS011;5493;48.884;8.338;2023-04-03T06:23:09;2.03;;;1.43;;
10880;SDS011;5493;48.884;8.338;2023-04-03T06:25:36;1.63;;;1.50;;
10880;SDS011;5493;48.884;8.338;2023-04-03T06:28:03;1.50;;;1.40;;
10880;SDS011;5493;48.884;8.338;2023-04-03T06:30:29;2.07;;;1.40;;
10880;SDS011;5493;48.884;8.338;2023-04-03T06:32:56;1.90;;;1.70;;
10880;SDS011;5493;48.884;8.338;2023-04-03T06:35:24;3.17;;;1.60;;
10880;SDS011;5493;48.884;8.338;2023-04-03T06:37:52;1.97;;;1.67;;
10880;SDS011;5493;48.884;8.338;2023-04-03T06:40:21;1.60;;;1.40;;
10880;SDS011;5493;48.884;8.338;2023-04-03T06:42:48;3.57;;;1.70;;
10880;SDS011;5493;48.884;8.338;2023-04-03T06:45:15;3.73;;;2.20;;
10880;SDS011;5493;48.884;8.338;2023-04-03T06:47:42;1.73;;;1.40;;
10880;SDS011;5493;48.884;8.338;2023-04-03T06:50:09;1.93;;;1.53;;
10880;SDS011;5493;48.884;8.338;2023-04-03T06:52:39;1.80;;;1.47;;
10880;SDS011;5493;48.884;8.338;2023-04-03T06:55:05;1.87;;;1.63;;
10880;SDS011;5493;48.884;8.338;2023-04-03T06:57:34;1.97;;;1.50;;
10880;SDS011;5493;48.884;8.338;2023-04-03T07:00:01;2.57;;;1.57;;
10880;SDS011;5493;48.884;8.338;2023-04-03T07:02:29;1.93;;;1.53;;
10880;SDS011;5493;48.884;8.338;2023-04-03T07:04:55;3.10;;;1.70;;
10880;SDS011;5493;48.884;8.338;2023-04-03T07:07:22;2.50;;;1.90;;
10880;SDS011;5493;48.884;8.338;2023-04-03T07:09:48;2.23;;;1.67;;
10880;SDS011;5493;48.884;8.338;2023-04-03T07:12:16;2.00;;;1.70;;
10880;SDS011;5493;48.884;8.338;2023-04-03T07:14:44;2.33;;;1.67;;
10880;SDS011;5493;48.884;8.338;2023-04-03T07:17:10;2.40;;;1.70;;
10880;SDS011;5493;48.884;8.338;2023-04-03T07:19:37;4.30;;;1.90;;
10880;SDS011;5493;48.884;8.338;2023-04-03T07:22:03;4.53;;;1.83;;
10880;SDS011;5493;48.884;8.338;2023-04-03T07:24:30;2.17;;;1.67;;
10880;SDS011;5493;48.884;8.338;2023-04-03T07:26:56;3.20;;;1.57;;
10880;SDS011;5493;48.884;8.338;2023-04-03T07:29:22;3.33;;;2.17;;
10880;SDS011;5493;48.884;8.338;2023-04-03T07:31:50;2.10;;;1.87;;
10880;SDS011;5493;48.884;8.338;2023-04-03T07:34:17;1.93;;;1.73;;
10880;SDS011;5493;48.884;8.338;2023-04-03T07:36:44;3.67;;;2.70;;
10880;SDS011;5493;48.884;8.338;2023-04-03T07:39:10;2.77;;;2.10;;
10880;SDS011;5493;48.884;8.338;2023-04-03T07:41:36;2.27;;;1.70;;
10880;SDS011;5493;48.884;8.338;2023-04-03T07:44:03;1.63;;;1.40;;
10880;SDS011;5493;48.884;8.338;2023-04-03T07:46:30;2.37;;;1.77;;
10880;SDS011;5493;48.884;8.338;2023-04-03T07:48:58;2.17;;;1.70;;
10880;SDS011;5493;48.884;8.338;2023-04-03T07:51:25;2.00;;;1.80;;
10880;SDS011;5493;48.884;8.338;2023-04-03T07:53:53;2.23;;;2.00;;
10880;SDS011;5493;48.884;8.338;2023-04-03T07:56:19;2.33;;;1.83;;
10880;SDS011;5493;48.884;8.338;2023-04-03T07:58:46;3.30;;;2.07;;
10880;SDS011;5493;48.884;8.338;2023-04-03T08:01:12;2.30;;;1.63;;
10880;SDS011;5493;48.884;8.338;2023-04-03T08:03:39;3.87;;;1.70;;
10880;SDS011;5493;48.884;8.338;2023-04-03T08:06:07;3.50;;;2.00;;
10880;SDS011;5493;48.884;8.338;2023-04-03T08:08:34;4.50;;;2.10;;
10880;SDS011;5493;48.884;8.338;2023-04-03T08:11:01;2.37;;;1.73;;
10880;SDS011;5493;48.884;8.338;2023-04-03T08:13:30;4.43;;;2.00;;
10880;SDS011;5493;48.884;8.338;2023-04-03T08:15:57;3.17;;;1.97;;
10880;SDS011;5493;48.884;8.338;2023-04-03T08:18:24;3.03;;;1.57;;
10880;SDS011;5493;48.884;8.338;2023-04-03T08:20:51;6.73;;;2.00;;
10880;SDS011;5493;48.884;8.338;2023-04-03T08:23:19;2.93;;;1.80;;
10880;SDS011;5493;48.884;8.338;2023-04-03T08:25:46;4.10;;;2.00;;
10880;SDS011;5493;48.884;8.338;2023-04-03T08:28:12;4.13;;;2.10;;
10880;SDS011;5493;48.884;8.338;2023-04-03T08:30:39;7.47;;;1.97;;
10880;SDS011;5493;48.884;8.338;2023-04-03T08:33:06;2.37;;;1.93;;
10880;SDS011;5493;48.884;8.338;2023-04-03T08:35:33;4.53;;;1.90;;
10880;SDS011;5493;48.884;8.338;2023-04-03T08:37:59;2.57;;;2.13;;
10880;SDS011;5493;48.884;8.338;2023-04-03T08:40:27;4.57;;;1.90;;
10880;SDS011;5493;48.884;8.338;2023-04-03T08:42:59;4.50;;;1.90;;
10880;SDS011;5493;48.884;8.338;2023-04-03T08:45:37;1.53;;;1.33;;
10880;SDS011;5493;48.884;8.338;2023-04-03T08:48:11;2.90;;;1.80;;
10880;SDS011;5493;48.884;8.338;2023-04-03T08:50:41;2.70;;;1.70;;
10880;SDS011;5493;48.884;8.338;2023-04-03T08:53:12;2.90;;;2.03;;
10880;SDS011;5493;48.884;8.338;2023-04-03T08:55:44;2.50;;;1.90;;
10880;SDS011;5493;48.884;8.338;2023-04-03T08:58:12;2.67;;;1.80;;
10880;SDS011;5493;48.884;8.338;2023-04-03T09:00:43;3.40;;;1.77;;
10880;SDS011;5493;48.884;8.338;2023-04-03T09:03:12;4.23;;;2.10;;
10880;SDS011;5493;48.884;8.338;2023-04-03T09:05:41;3.53;;;1.70;;
10880;SDS011;5493;48.884;8.338;2023-04-03T09:08:13;3.67;;;1.87;;
10880;SDS011;5493;48.884;8.338;2023-04-03T09:10:49;3.13;;;1.97;;
10880;SDS011;5493;48.884;8.338;2023-04-03T09:13:20;2.63;;;1.80;;
10880;SDS011;5493;48.884;8.338;2023-04-03T09:15:53;2.47;;;1.90;;
10880;SDS011;5493;48.884;8.338;2023-04-03T09:18:21;2.10;;;1.80;;
10880;SDS011;5493;48.884;8.338;2023-04-03T09:20:54;2.87;;;1.80;;
10880;SDS011;5493;48.884;8.338;2023-04-03T09:23:28;4.13;;;1.90;;
10880;SDS011;5493;48.884;8.338;2023-04-03T09:26:02;2.73;;;1.60;;
10880;SDS011;5493;48.884;8.338;2023-04-03T09:28:32;1.27;;;1.17;;
10880;SDS011;5493;48.884;8.338;2023-04-03T09:31:18;2.27;;;1.70;;
10880;SDS011;5493;48.884;8.338;2023-04-03T09:33:47;2.73;;;1.57;;
10880;SDS011;5493;48.884;8.338;2023-04-03T09:39:04;2.53;;;1.63;;
10880;SDS011;5493;48.884;8.338;2023-04-03T09:41:34;1.60;;;1.40;;
10880;SDS011;5493;48.884;8.338;2023-04-03T09:44:00;4.37;;;1.90;;
10880;SDS011;5493;48.884;8.338;2023-04-03T09:46:31;3.10;;;1.80;;
10880;SDS011;5493;48.884;8.338;2023-04-03T09:49:00;3.30;;;1.90;;
10880;SDS011;5493;48.884;8.338;2023-04-03T09:51:28;2.47;;;1.70;;
10880;SDS011;5493;48.884;8.338;2023-04-03T09:53:56;1.83;;;1.53;;
10880;SDS011;5493;48.884;8.338;2023-04-03T09:56:24;3.83;;;1.50;;
10880;SDS011;5493;48.884;8.338;2023-04-03T09:59:06;3.97;;;1.50;;
10880;SDS011;5493;48.884;8.338;2023-04-03T10:01:39;2.37;;;1.50;;
10880;SDS011;5493;48.884;8.338;2023-04-03T10:04:09;2.40;;;1.70;;
10880;SDS011;5493;48.884;8.338;2023-04-03T10:06:38;3.10;;;1.60;;
10880;SDS011;5493;48.884;8.338;2023-04-03T10:09:15;1.87;;;1.30;;
10880;SDS011;5493;48.884;8.338;2023-04-03T10:11:57;1.70;;;1.60;;
10880;SDS011;5493;48.884;8.338;2023-04-03T10:14:27;1.43;;;1.33;;
10880;SDS011;5493;48.884;8.338;2023-04-03T10:16:57;2.07;;;1.30;;
10880;SDS011;5493;48.884;8.338;2023-04-03T10:19:32;1.67;;;1.50;;
10880;SDS011;5493;48.884;8.338;2023-04-03T10:22:03;3.57;;;1.90;;
10880;SDS011;5493;48.884;8.338;2023-04-03T10:24:36;3.50;;;1.90;;
10880;SDS011;5493;48.884;8.338;2023-04-03T10:27:10;4.73;;;2.00;;
10880;SDS011;5493;48.884;8.338;2023-04-03T10:29:45;2.23;;;1.50;;
10880;SDS011;5493;48.884;8.338;2023-04-03T10:32:21;4.40;;;1.60;;
10880;SDS011;5493;48.884;8.338;2023-04-03T10:34:57;2.93;;;1.90;;
10880;SDS011;5493;48.884;8.338;2023-04-03T10:37:34;2.07;;;1.13;;
10880;SDS011;5493;48.884;8.338;2023-04-03T10:40:15;2.33;;;1.30;;
10880;SDS011;5493;48.884;8.338;2023-04-03T10:42:50;3.33;;;1.33;;
10880;SDS011;5493;48.884;8.338;2023-04-03T10:45:26;2.90;;;1.33;;
10880;SDS011;5493;48.884;8.338;2023-04-03T10:47:58;3.70;;;2.50;;
10880;SDS011;5493;48.884;8.338;2023-04-03T10:50:36;4.23;;;1.93;;
10880;SDS011;5493;48.884;8.338;2023-04-03T10:53:08;4.03;;;1.70;;
10880;SDS011;5493;48.884;8.338;2023-04-03T10:55:46;2.83;;;1.70;;
10880;SDS011;5493;48.884;8.338;2023-04-03T10:58:21;3.50;;;1.50;;
10880;SDS011;5493;48.884;8.338;2023-04-03T11:00:54;1.73;;;1.23;;
10880;SDS011;5493;48.884;8.338;2023-04-03T11:03:29;2.13;;;1.30;;
10880;SDS011;5493;48.884;8.338;2023-04-03T11:05:59;1.30;;;1.20;;
10880;SDS011;5493;48.884;8.338;2023-04-03T11:08:28;3.23;;;1.33;;
10880;SDS011;5493;48.884;8.338;2023-04-03T11:11:00;2.70;;;1.53;;
10880;SDS011;5493;48.884;8.338;2023-04-03T11:13:32;2.70;;;1.50;;
10880;SDS011;5493;48.884;8.338;2023-04-03T11:16:01;2.27;;;1.50;;
10880;SDS011;5493;48.884;8.338;2023-04-03T11:18:32;2.33;;;1.37;;
10880;SDS011;5493;48.884;8.338;2023-04-03T11:21:04;1.93;;;1.20;;
10880;SDS011;5493;48.884;8.338;2023-04-03T11:23:36;3.47;;;1.27;;
10880;SDS011;5493;48.884;8.338;2023-04-03T11:26:07;2.80;;;1.30;;
10880;SDS011;5493;48.884;8.338;2023-04-03T11:28:36;1.70;;;1.30;;
10880;SDS011;5493;48.884;8.338;2023-04-03T11:31:06;0.93;;;0.73;;
10880;SDS011;5493;48.884;8.338;2023-04-03T11:33:42;3.13;;;1.33;;
10880;SDS011;5493;48.884;8.338;2023-04-03T11:36:18;3.60;;;1.40;;
10880;SDS011;5493;48.884;8.338;2023-04-03T11:38:48;2.70;;;1.40;;
10880;SDS011;5493;48.884;8.338;2023-04-03T11:41:17;1.37;;;0.97;;
10880;SDS011;5493;48.884;8.338;2023-04-03T11:43:56;2.40;;;1.33;;
10880;SDS011;5493;48.884;8.338;2023-04-03T11:58:25;3.53;;;1.40;;
10880;SDS011;5493;48.884;8.338;2023-04-03T12:00:54;3.80;;;1.30;;
10880;SDS011;5493;48.884;8.338;2023-04-03T12:09:26;3.57;;;1.30;;
10880;SDS011;5493;48.884;8.338;2023-04-03T12:11:56;2.50;;;1.33;;
10880;SDS011;5493;48.884;8.338;2023-04-03T12:14:24;1.17;;;1.03;;
10880;SDS011;5493;48.884;8.338;2023-04-03T12:16:53;3.70;;;1.20;;
10880;SDS011;5493;48.884;8.338;2023-04-03T12:19:30;1.33;;;1.10;;
10880;SDS011;5493;48.884;8.338;2023-04-03T12:22:08;2.00;;;1.03;;
10880;SDS011;5493;48.884;8.338;2023-04-03T12:24:42;2.43;;;1.30;;
10880;SDS011;5493;48.884;8.338;2023-04-03T12:29:59;3.40;;;1.50;;
10880;SDS011;5493;48.884;8.338;2023-04-03T12:32:40;3.27;;;1.47;;
10880;SDS011;5493;48.884;8.338;2023-04-03T12:35:20;2.63;;;1.27;;
10880;SDS011;5493;48.884;8.338;2023-04-03T12:38:14;2.90;;;1.50;;
10880;SDS011;5493;48.884;8.338;2023-04-03T12:40:50;3.10;;;1.50;;
10880;SDS011;5493;48.884;8.338;2023-04-03T12:43:29;1.70;;;1.17;;
10880;SDS011;5493;48.884;8.338;2023-04-03T12:46:10;2.47;;;1.50;;
10880;SDS011;5493;48.884;8.338;2023-04-03T12:48:46;1.50;;;1.27;;
10880;SDS011;5493;48.884;8.338;2023-04-03T12:51:14;2.73;;;1.27;;
10880;SDS011;5493;48.884;8.338;2023-04-03T12:53:44;1.93;;;1.10;;
10880;SDS011;5493;48.884;8.338;2023-04-03T12:56:19;2.60;;;1.33;;
10880;SDS011;5493;48.884;8.338;2023-04-03T12:58:47;1.80;;;1.23;;
10880;SDS011;5493;48.884;8.338;2023-04-03T13:01:14;2.23;;;1.60;;
10880;SDS011;5493;48.884;8.338;2023-04-03T13:03:43;1.80;;;1.53;;
10880;SDS011;5493;48.884;8.338;2023-04-03T13:06:14;3.57;;;1.40;;
10880;SDS011;5493;48.884;8.338;2023-04-03T13:08:49;3.67;;;1.33;;
10880;SDS011;5493;48.884;8.338;2023-04-03T13:11:17;1.93;;;1.40;;
10880;SDS011;5493;48.884;8.338;2023-04-03T13:13:53;2.27;;;1.43;;
10880;SDS011;5493;48.884;8.338;2023-04-03T13:16:23;1.40;;;1.30;;
10880;SDS011;5493;48.884;8.338;2023-04-03T13:18:51;1.53;;;1.43;;
10880;SDS011;5493;48.884;8.338;2023-04-03T13:21:19;1.83;;;1.30;;
10880;SDS011;5493;48.884;8.338;2023-04-03T13:23:50;2.77;;;1.10;;
10880;SDS011;5493;48.884;8.338;2023-04-03T13:26:19;2.20;;;1.37;;
10880;SDS011;5493;48.884;8.338;2023-04-03T13:28:47;2.13;;;1.33;;
10880;SDS011;5493;48.884;8.338;2023-04-03T13:31:18;2.03;;;1.23;;
10880;SDS011;5493;48.884;8.338;2023-04-03T13:33:53;2.87;;;1.30;;
10880;SDS011;5493;48.884;8.338;2023-04-03T13:36:22;2.67;;;1.50;;
10880;SDS011;5493;48.884;8.338;2023-04-03T13:38:59;5.53;;;1.50;;
10880;SDS011;5493;48.884;8.338;2023-04-03T13:41:39;1.00;;;0.90;;
10880;SDS011;5493;48.884;8.338;2023-04-03T13:47:14;2.27;;;1.57;;
10880;SDS011;5493;48.884;8.338;2023-04-03T13:49:44;3.10;;;1.57;;
10880;SDS011;5493;48.884;8.338;2023-04-03T13:52:25;4.70;;;1.83;;
10880;SDS011;5493;48.884;8.338;2023-04-03T13:54:57;3.80;;;2.07;;
10880;SDS011;5493;48.884;8.338;2023-04-03T13:57:25;2.43;;;1.43;;
10880;SDS011;5493;48.884;8.338;2023-04-03T13:59:53;1.90;;;1.37;;
10880;SDS011;5493;48.884;8.338;2023-04-03T14:02:20;2.83;;;1.40;;
10880;SDS011;5493;48.884;8.338;2023-04-03T14:04:50;1.53;;;1.30;;
10880;SDS011;5493;48.884;8.338;2023-04-03T14:07:21;1.40;;;1.17;;
10880;SDS011;5493;48.884;8.338;2023-04-03T14:09:49;1.77;;;1.30;;
10880;SDS011;5493;48.884;8.338;2023-04-03T14:12:19;2.37;;;1.27;;
10880;SDS011;5493;48.884;8.338;2023-04-03T14:14:51;3.20;;;1.57;;
10880;SDS011;5493;48.884;8.338;2023-04-03T14:17:19;3.03;;;1.90;;
10880;SDS011;5493;48.884;8.338;2023-04-03T14:19:47;5.17;;;3.43;;
10880;SDS011;5493;48.884;8.338;2023-04-03T14:22:17;3.20;;;2.07;;
10880;SDS011;5493;48.884;8.338;2023-04-03T14:24:46;2.77;;;2.00;;
10880;SDS011;5493;48.884;8.338;2023-04-03T14:27:15;2.50;;;1.70;;
10880;SDS011;5493;48.884;8.338;2023-04-03T14:29:44;4.43;;;1.57;;
10880;SDS011;5493;48.884;8.338;2023-04-03T14:32:11;2.83;;;1.70;;
10880;SDS011;5493;48.884;8.338;2023-04-03T14:34:39;3.37;;;1.80;;
10880;SDS011;5493;48.884;8.338;2023-04-03T14:37:05;1.87;;;1.37;;
10880;SDS011;5493;48.884;8.338;2023-04-03T14:39:36;3.30;;;1.50;;
10880;SDS011;5493;48.884;8.338;2023-04-03T14:42:03;2.27;;;1.33;;
10880;SDS011;5493;48.884;8.338;2023-04-03T14:44:31;2.07;;;1.60;;
10880;SDS011;5493;48.884;8.338;2023-04-03T14:46:57;2.50;;;1.47;;
10880;SDS011;5493;48.884;8.338;2023-04-03T14:49:25;2.47;;;1.50;;
10880;SDS011;5493;48.884;8.338;2023-04-03T14:51:54;2.87;;;1.37;;
10880;SDS011;5493;48.884;8.338;2023-04-03T14:54:21;3.83;;;2.00;;
10880;SDS011;5493;48.884;8.338;2023-04-03T14:56:50;5.33;;;1.70;;
10880;SDS011;5493;48.884;8.338;2023-04-03T14:59:17;2.03;;;1.40;;
10880;SDS011;5493;48.884;8.338;2023-04-03T15:01:46;2.60;;;1.50;;
10880;SDS011;5493;48.884;8.338;2023-04-03T15:04:13;2.47;;;1.53;;
10880;SDS011;5493;48.884;8.338;2023-04-03T15:06:41;3.60;;;1.60;;
10880;SDS011;5493;48.884;8.338;2023-04-03T15:09:11;1.50;;;1.20;;
10880;SDS011;5493;48.884;8.338;2023-04-03T15:11:45;1.40;;;1.20;;
10880;SDS011;5493;48.884;8.338;2023-04-03T15:14:12;2.47;;;1.50;;
10880;SDS011;5493;48.884;8.338;2023-04-03T15:16:38;3.30;;;1.40;;
10880;SDS011;5493;48.884;8.338;2023-04-03T15:19:06;2.20;;;1.40;;
10880;SDS011;5493;48.884;8.338;2023-04-03T15:21:32;3.67;;;1.20;;
10880;SDS011;5493;48.884;8.338;2023-04-03T15:23:59;1.40;;;1.30;;
10880;SDS011;5493;48.884;8.338;2023-04-03T15:26:25;3.50;;;1.30;;
10880;SDS011;5493;48.884;8.338;2023-04-03T15:28:52;3.23;;;1.17;;
10880;SDS011;5493;48.884;8.338;2023-04-03T15:31:18;2.43;;;1.60;;
10880;SDS011;5493;48.884;8.338;2023-04-03T15:33:45;3.90;;;2.47;;
10880;SDS011;5493;48.884;8.338;2023-04-03T15:36:12;3.53;;;1.40;;
10880;SDS011;5493;48.884;8.338;2023-04-03T15:38:39;5.47;;;1.40;;
10880;SDS011;5493;48.884;8.338;2023-04-03T15:41:05;2.90;;;1.40;;
10880;SDS011;5493;48.884;8.338;2023-04-03T15:43:32;2.47;;;1.30;;